Time;durP1;ratioP1;P1;durP2;ratioP2;P2;SDS_P1;SDS_P2;PMS_P1;PMS_P2;Temp;Humidity;BMP_temperature;BMP_pressure;BME280_temperature;BME280_humidity;BME280_pressure;Samples;Min_cycle;Max_cycle;Signal;HPM_P1;HPM_P2
2021/01/22 00:00:22;;;;;;;1.03;0.83;;;;;;;10.85;70.38;96733.59;4920879;28;105438;-84
2021/01/22 00:02:50;;;;;;;0.60;0.60;;;;;;;10.79;71.37;96697.25;4923396;28;103878;-83
2021/01/22 00:05:17;;;;;;;0.70;0.50;;;;;;;10.68;71.68;96676.44;4922107;28;103697;-84
2021/01/22 00:07:44;;;;;;;1.13;0.60;;;;;;;10.63;71.52;96680.53;4921965;28;107607;-82
2021/01/22 00:10:13;;;;;;;0.93;0.70;;;;;;;10.64;71.72;96675.06;4917453;28;103246;-81
2021/01/22 00:12:40;;;;;;;1.00;0.70;;;;;;;10.57;72.21;96668.78;4919500;28;104987;-85
2021/01/22 00:15:08;;;;;;;1.00;0.80;;;;;;;10.53;72.43;96659.53;4921600;28;103782;-84
2021/01/22 00:17:35;;;;;;;1.83;0.80;;;;;;;10.43;72.48;96643.84;4922432;28;102980;-84
2021/01/22 00:20:04;;;;;;;0.93;0.60;;;;;;;10.42;72.86;96651.91;4924081;28;103029;-82
2021/01/22 00:22:31;;;;;;;1.97;0.80;;;;;;;10.34;73.16;96644.78;4919914;28;103700;-84
2021/01/22 00:24:58;;;;;;;0.70;0.70;;;;;;;10.35;73.35;96635.06;4922802;28;105733;-84
2021/01/22 00:27:26;;;;;;;1.70;0.90;;;;;;;10.33;73.10;96629.91;4921719;28;103198;-84
2021/01/22 00:29:53;;;;;;;0.70;0.57;;;;;;;10.27;73.56;96640.31;4921543;28;103033;-82
2021/01/22 00:32:20;;;;;;;0.63;0.63;;;;;;;10.22;74.01;96624.09;4922787;28;103185;-83
2021/01/22 00:34:48;;;;;;;1.90;0.60;;;;;;;10.21;74.23;96630.38;4921687;28;103753;-81
2021/01/22 00:37:15;;;;;;;0.87;0.60;;;;;;;10.15;74.50;96623.91;4920418;28;103225;-81
2021/01/22 00:39:42;;;;;;;1.07;0.73;;;;;;;10.07;74.77;96620.38;4923441;28;102997;-84
2021/01/22 00:42:09;;;;;;;0.80;0.70;;;;;;;10.06;74.90;96608.16;4923980;28;103456;-83
2021/01/22 00:44:37;;;;;;;1.57;0.90;;;;;;;9.96;75.25;96607.47;4909107;28;103099;-83
2021/01/22 00:47:04;;;;;;;0.50;0.50;;;;;;;9.97;75.39;96598.56;4917752;28;102886;-80
2021/01/22 00:49:33;;;;;;;0.90;0.70;;;;;;;9.90;75.58;96583.38;4921464;28;103322;-83
2021/01/22 00:52:00;;;;;;;0.87;0.80;;;;;;;9.83;76.03;96581.50;4923719;28;104354;-81
2021/01/22 00:54:28;;;;;;;0.60;0.60;;;;;;;9.78;75.94;96579.34;4919793;28;103686;-82
2021/01/22 00:57:21;;;;;;;0.90;0.60;;;;;;;9.84;75.49;96578.72;4889052;28;103316;-82
2021/01/22 00:59:50;;;;;;;2.77;0.80;;;;;;;9.82;75.72;96572.75;4911236;28;108231;-81
2021/01/22 01:02:18;;;;;;;0.77;0.60;;;;;;;9.81;75.46;96570.31;4918755;28;103428;-83
2021/01/22 01:04:45;;;;;;;0.77;0.70;;;;;;;9.78;75.33;96565.34;4921320;28;103633;-84
2021/01/22 01:07:15;;;;;;;0.63;0.60;;;;;;;9.78;75.71;96563.53;4920617;28;103075;-83
2021/01/22 01:09:46;;;;;;;1.20;0.80;;;;;;;9.76;75.50;96570.78;4922066;28;102939;-83
2021/01/22 01:12:32;;;;;;;0.90;0.60;;;;;;;9.76;75.59;96576.06;4908460;28;103856;-83
2021/01/22 01:15:18;;;;;;;0.80;0.80;;;;;;;9.68;75.76;96578.66;4916836;28;106822;-84
2021/01/22 01:17:45;;;;;;;0.67;0.50;;;;;;;9.69;76.21;96577.66;4922358;28;102575;-82
2021/01/22 01:20:14;;;;;;;0.60;0.60;;;;;;;9.68;75.73;96581.28;4922908;28;102630;-83
2021/01/22 01:22:41;;;;;;;0.77;0.70;;;;;;;9.63;76.02;96570.34;4917780;28;103908;-85
2021/01/22 01:25:12;;;;;;;0.90;0.70;;;;;;;9.65;75.56;96578.97;4919112;28;103219;-85
2021/01/22 01:27:48;;;;;;;0.90;0.57;;;;;;;9.71;75.01;96565.13;4921239;28;102951;-86
2021/01/22 01:30:16;;;;;;;0.40;0.40;;;;;;;9.69;75.28;96569.75;4921572;28;102870;-86
2021/01/22 01:32:44;;;;;;;0.60;0.60;;;;;;;9.65;75.34;96572.84;4923002;28;103938;-85
2021/01/22 01:35:12;;;;;;;1.43;0.63;;;;;;;9.68;74.85;96572.53;4922778;28;103796;-83
2021/01/22 01:37:39;;;;;;;0.73;0.60;;;;;;;9.62;75.21;96587.19;4920294;28;102797;-86
2021/01/22 01:40:07;;;;;;;1.90;0.60;;;;;;;9.65;74.92;96584.22;4923715;28;102897;-83
2021/01/22 01:42:35;;;;;;;2.40;0.50;;;;;;;9.68;74.62;96589.19;4923205;28;103969;-85
2021/01/22 01:45:02;;;;;;;0.90;0.60;;;;;;;9.73;74.77;96591.34;4922217;28;103746;-82
2021/01/22 01:47:29;;;;;;;0.53;0.50;;;;;;;9.72;74.44;96587.88;4919210;28;102953;-85
2021/01/22 01:49:57;;;;;;;0.60;0.50;;;;;;;9.73;74.61;96584.28;4911727;28;102854;-85
2021/01/22 01:52:25;;;;;;;0.50;0.50;;;;;;;9.68;74.92;96583.94;4915073;28;104618;-84
2021/01/22 01:54:53;;;;;;;0.80;0.60;;;;;;;9.70;74.38;96576.69;4921720;28;103806;-82
2021/01/22 01:57:20;;;;;;;0.97;0.73;;;;;;;9.74;74.67;96578.00;4921316;28;103184;-85
2021/01/22 01:59:47;;;;;;;0.60;0.60;;;;;;;9.72;74.61;96574.69;4920523;28;104799;-85
2021/01/22 02:02:15;;;;;;;0.77;0.60;;;;;;;9.72;74.45;96571.22;4911939;28;104068;-86
2021/01/22 02:04:42;;;;;;;0.47;0.43;;;;;;;9.71;74.74;96567.75;4908636;28;103684;-86
2021/01/22 02:07:10;;;;;;;1.77;0.67;;;;;;;9.77;74.41;96579.50;4903214;28;106704;-85
2021/01/22 02:09:39;;;;;;;1.20;0.80;;;;;;;9.77;74.27;96569.78;4914179;28;103016;-83
2021/01/22 02:12:07;;;;;;;1.13;0.70;;;;;;;9.81;74.22;96571.13;4914170;28;104578;-83
2021/01/22 02:14:36;;;;;;;0.50;0.50;;;;;;;9.81;73.74;96578.22;4918634;28;110105;-83
2021/01/22 02:17:03;;;;;;;0.80;0.70;;;;;;;9.78;74.12;96565.34;4920698;28;102536;-84
2021/01/22 02:19:51;;;;;;;0.90;0.60;;;;;;;9.79;73.68;96570.47;4921723;28;102928;-83
2021/01/22 02:22:19;;;;;;;0.70;0.50;;;;;;;9.78;73.71;96568.81;4920729;28;103716;-82
2021/01/22 02:24:47;;;;;;;2.30;0.80;;;;;;;9.79;73.90;96573.09;4922344;28;103786;-86
2021/01/22 02:27:17;;;;;;;2.73;0.70;;;;;;;9.80;73.38;96576.53;4922592;28;102576;-84
2021/01/22 02:29:44;;;;;;;1.77;0.70;;;;;;;9.78;73.22;96566.16;4921991;28;103126;-85
2021/01/22 02:32:13;;;;;;;1.33;0.63;;;;;;;9.83;73.65;96573.59;4922139;28;103838;-83
2021/01/22 02:34:44;;;;;;;1.00;0.60;;;;;;;9.80;73.08;96571.28;4922079;28;103761;-83
2021/01/22 02:37:13;;;;;;;2.50;0.70;;;;;;;9.76;73.42;96573.41;4920975;28;102946;-85
2021/01/22 02:39:43;;;;;;;0.90;0.70;;;;;;;9.72;73.68;96569.44;4922164;28;104141;-83
2021/01/22 02:42:11;;;;;;;2.57;0.70;;;;;;;9.73;73.40;96576.38;4921181;28;104780;-79
2021/01/22 02:44:39;;;;;;;0.73;0.70;;;;;;;9.72;73.34;96574.69;4921590;28;105336;-83
2021/01/22 02:47:09;;;;;;;1.40;0.70;;;;;;;9.71;73.26;96582.78;4916626;28;103165;-84
2021/01/22 02:49:36;;;;;;;1.43;0.80;;;;;;;9.67;73.36;96571.72;4921962;28;102923;-82
2021/01/22 02:52:04;;;;;;;1.33;0.60;;;;;;;9.68;73.14;96578.66;4921000;28;105408;-85
2021/01/22 02:54:31;;;;;;;2.03;0.80;;;;;;;9.72;72.99;96582.59;4919740;28;105102;-83
2021/01/22 02:57:11;;;;;;;1.00;0.60;;;;;;;9.75;72.82;96576.19;4920665;28;102950;-85
2021/01/22 02:59:58;;;;;;;1.47;0.90;;;;;;;9.69;73.37;96568.91;4921946;28;102876;-85
2021/01/22 03:02:32;;;;;;;1.77;0.87;;;;;;;9.64;72.98;96582.56;4910555;28;104919;-85
2021/01/22 03:05:00;;;;;;;1.13;0.70;;;;;;;9.63;73.11;96572.16;4919158;28;103851;-84
2021/01/22 03:07:37;;;;;;;3.30;1.03;;;;;;;9.57;73.24;96581.53;4923818;28;102903;-79
2021/01/22 03:10:06;;;;;;;1.20;0.70;;;;;;;9.60;73.15;96569.88;4924213;28;102973;-79
2021/01/22 03:12:34;;;;;;;2.70;0.83;;;;;;;9.56;73.04;96569.34;4910471;28;103871;-83
2021/01/22 03:15:04;;;;;;;1.43;0.90;;;;;;;9.51;73.13;96576.91;4917923;28;103687;-85
2021/01/22 03:17:31;;;;;;;1.80;1.00;;;;;;;9.50;73.12;96572.59;4924018;28;102897;-84
2021/01/22 03:19:58;;;;;;;2.33;1.10;;;;;;;9.47;73.34;96575.53;4915617;28;103278;-83
2021/01/22 03:22:25;;;;;;;2.30;0.70;;;;;;;9.41;73.27;96584.06;4906835;28;109693;-85
2021/01/22 03:24:52;;;;;;;3.30;0.80;;;;;;;9.40;73.21;96590.34;4924141;28;103794;-84
2021/01/22 03:27:19;;;;;;;3.67;1.13;;;;;;;9.35;73.42;96575.97;4924797;28;102753;-85
2021/01/22 03:29:46;;;;;;;1.90;0.90;;;;;;;9.36;73.44;96590.78;4923913;28;103439;-84
2021/01/22 03:32:14;;;;;;;1.77;0.90;;;;;;;9.30;73.57;96581.69;4925110;28;105449;-85
2021/01/22 03:34:41;;;;;;;3.63;0.93;;;;;;;9.32;73.69;96580.53;4924842;28;103103;-85
2021/01/22 03:37:09;;;;;;;2.10;0.97;;;;;;;9.27;73.83;96571.44;4921536;28;103012;-85
2021/01/22 03:39:36;;;;;;;4.00;0.93;;;;;;;9.21;73.89;96575.50;4921672;28;104737;-83
2021/01/22 03:42:04;;;;;;;3.40;1.00;;;;;;;9.23;73.71;96583.28;4923005;28;103344;-83
2021/01/22 03:44:31;;;;;;;1.53;0.90;;;;;;;9.16;74.00;96584.84;4923379;28;106477;-84
2021/01/22 03:46:58;;;;;;;2.47;0.83;;;;;;;9.17;73.73;96578.63;4907141;28;103228;-84
2021/01/22 03:49:26;;;;;;;2.00;1.00;;;;;;;9.13;73.92;96569.34;4922382;28;103400;-84
2021/01/22 03:51:53;;;;;;;2.47;1.00;;;;;;;9.18;73.82;96564.44;4909422;28;103829;-86
2021/01/22 03:54:20;;;;;;;3.70;1.17;;;;;;;9.18;73.98;96556.53;4923815;28;103300;-84
2021/01/22 03:56:47;;;;;;;3.83;1.30;;;;;;;9.12;73.77;96550.09;4924835;28;102897;-78
2021/01/22 03:59:14;;;;;;;1.47;0.70;;;;;;;9.08;73.90;96553.19;4924720;28;103169;-82
2021/01/22 04:01:41;;;;;;;2.90;0.90;;;;;;;9.07;73.64;96562.88;4919226;28;103928;-81
2021/01/22 04:04:08;;;;;;;2.70;0.90;;;;;;;9.07;73.51;96567.31;4922947;28;104747;-77
2021/01/22 04:06:36;;;;;;;2.50;1.00;;;;;;;9.07;73.91;96567.31;4921729;28;102867;-80
2021/01/22 04:09:04;;;;;;;3.33;1.10;;;;;;;9.03;73.85;96560.72;4925025;28;103522;-80
2021/01/22 04:11:32;;;;;;;2.53;1.20;;;;;;;9.04;74.12;96551.88;4922683;28;111255;-78
2021/01/22 04:13:59;;;;;;;2.50;0.97;;;;;;;9.04;73.88;96554.50;4921256;28;105104;-81
2021/01/22 04:16:26;;;;;;;2.87;0.97;;;;;;;8.98;73.88;96550.63;4923493;28;105641;-79
2021/01/22 04:18:53;;;;;;;2.87;1.10;;;;;;;8.94;73.92;96551.09;4923136;28;103175;-78
2021/01/22 04:21:20;;;;;;;2.90;1.10;;;;;;;8.97;74.08;96545.53;4924114;28;103970;-81
2021/01/22 04:23:49;;;;;;;2.93;1.03;;;;;;;8.97;73.87;96548.16;4923202;28;103872;-79
2021/01/22 04:26:16;;;;;;;3.57;1.10;;;;;;;8.98;74.13;96540.09;4929637;28;102802;-83
2021/01/22 04:28:43;;;;;;;2.50;1.00;;;;;;;8.96;73.73;96528.06;4911527;28;104255;-81
2021/01/22 04:31:10;;;;;;;3.67;1.20;;;;;;;9.01;73.27;96528.47;4922642;28;102842;-80
2021/01/22 04:33:38;;;;;;;2.97;1.07;;;;;;;9.02;73.16;96523.03;4919762;28;103708;-81
2021/01/22 04:36:06;;;;;;;3.53;1.20;;;;;;;9.05;72.97;96508.72;4915720;28;103239;-81
2021/01/22 04:38:33;;;;;;;1.43;0.90;;;;;;;9.03;72.62;96513.31;4922655;28;103228;-76
2021/01/22 04:41:02;;;;;;;3.80;1.10;;;;;;;9.05;72.57;96516.63;4923890;28;103799;-74
2021/01/22 04:43:29;;;;;;;1.97;1.00;;;;;;;9.05;72.18;96512.19;4924047;28;105088;-78
2021/01/22 04:45:56;;;;;;;3.57;1.07;;;;;;;9.04;72.14;96510.53;4922537;28;102992;-77
2021/01/22 04:48:23;;;;;;;2.07;1.10;;;;;;;9.09;71.73;96499.53;4922207;28;104910;-72
2021/01/22 04:50:53;;;;;;;2.83;1.07;;;;;;;9.12;71.37;96491.34;4913137;28;104821;-71
2021/01/22 04:53:25;;;;;;;2.83;1.27;;;;;;;9.11;71.43;96474.69;4914127;28;103066;-71
2021/01/22 04:55:55;;;;;;;1.80;1.10;;;;;;;9.10;71.26;96482.75;4920415;28;107158;-77
2021/01/22 04:58:28;;;;;;;3.17;1.03;;;;;;;9.12;70.89;96478.16;4906029;28;103047;-76
2021/01/22 05:00:58;;;;;;;2.43;1.17;;;;;;;9.14;70.93;96489.38;4913961;28;105266;-77
2021/01/22 05:03:27;;;;;;;2.40;1.03;;;;;;;9.17;70.95;96478.53;4919774;28;104851;-76
2021/01/22 05:05:56;;;;;;;1.77;0.83;;;;;;;9.15;70.54;96469.97;4921051;28;102956;-77
2021/01/22 05:08:24;;;;;;;3.13;1.00;;;;;;;9.23;70.65;96477.91;4923736;28;103358;-77
2021/01/22 05:10:51;;;;;;;1.93;0.97;;;;;;;9.25;70.60;96475.94;4923589;28;104984;-77
2021/01/22 05:13:18;;;;;;;1.97;0.87;;;;;;;9.22;70.85;96465.69;4918548;28;104867;-77
2021/01/22 05:16:10;;;;;;;2.07;0.80;;;;;;;9.19;70.98;96458.09;4904966;28;103502;-77
2021/01/22 05:18:38;;;;;;;1.07;0.80;;;;;;;9.20;71.01;96468.50;4916236;28;103031;-76
2021/01/22 05:21:09;;;;;;;3.33;0.83;;;;;;;9.23;70.77;96467.38;4922888;28;107235;-78
2021/01/22 05:23:38;;;;;;;2.27;0.80;;;;;;;9.20;71.60;96457.13;4921251;28;104998;-77
2021/01/22 05:26:07;;;;;;;1.47;0.70;;;;;;;9.19;71.73;96460.75;4914703;28;103052;-82
2021/01/22 05:28:36;;;;;;;1.23;0.67;;;;;;;9.26;71.43;96453.88;4919647;28;103256;-74
2021/01/22 05:31:07;;;;;;;0.93;0.60;;;;;;;9.26;71.69;96459.16;4910893;28;106023;-74
2021/01/22 05:33:36;;;;;;;1.33;0.60;;;;;;;9.26;71.72;96452.06;4921712;28;106059;-74
2021/01/22 05:36:23;;;;;;;0.87;0.70;;;;;;;9.26;71.99;96456.53;4907331;28;103190;-74
2021/01/22 05:38:51;;;;;;;2.60;0.80;;;;;;;9.24;72.20;96453.19;4918576;28;102770;-74
2021/01/22 05:41:18;;;;;;;3.93;1.10;;;;;;;9.24;72.06;96455.81;4920980;28;103392;-74
2021/01/22 05:43:46;;;;;;;1.73;1.07;;;;;;;9.15;72.53;96459.41;4915454;28;105075;-74
2021/01/22 05:46:15;;;;;;;1.80;0.73;;;;;;;9.18;72.97;96453.81;4928267;28;106644;-74
2021/01/22 05:48:44;;;;;;;2.33;0.77;;;;;;;9.20;72.58;96457.13;4933925;28;102705;-74
2021/01/22 05:51:12;;;;;;;1.47;0.77;;;;;;;9.21;72.85;96453.50;4931327;28;103593;-74
2021/01/22 05:53:46;;;;;;;0.90;0.57;;;;;;;9.21;72.85;96464.03;4926921;28;103681;-74
2021/01/22 05:56:14;;;;;;;1.33;0.40;;;;;;;9.18;72.96;96444.09;4939356;28;102852;-74
2021/01/22 05:58:43;;;;;;;0.97;0.50;;;;;;;9.22;72.86;96455.16;4939250;28;104966;-75
2021/01/22 06:01:11;;;;;;;1.83;0.50;;;;;;;9.26;72.62;96451.25;4939789;28;104461;-74
2021/01/22 06:03:40;;;;;;;1.10;0.40;;;;;;;9.26;72.99;96451.25;4940907;28;103635;-74
2021/01/22 06:06:09;;;;;;;1.33;0.50;;;;;;;9.22;72.58;96452.53;4932430;28;103760;-74
2021/01/22 06:08:48;;;;;;;2.53;0.67;;;;;;;9.19;72.79;96445.78;4944304;28;103066;-74
2021/01/22 06:11:16;;;;;;;0.50;0.40;;;;;;;9.24;73.15;96442.66;4941114;28;104483;-74
2021/01/22 06:13:48;;;;;;;1.30;0.50;;;;;;;9.25;73.08;96439.88;4945213;28;104318;-74
2021/01/22 06:16:17;;;;;;;0.70;0.60;;;;;;;9.27;72.51;96426.53;4938443;28;103032;-74
2021/01/22 06:18:49;;;;;;;1.83;0.60;;;;;;;9.29;72.77;96425.38;4938071;28;103962;-74
2021/01/22 06:21:24;;;;;;;3.20;0.70;;;;;;;9.31;72.83;96412.91;4938621;28;103102;-74
2021/01/22 06:23:51;;;;;;;0.70;0.40;;;;;;;9.29;72.50;96414.84;4933499;28;103146;-74
2021/01/22 06:26:19;;;;;;;2.43;0.60;;;;;;;9.28;72.31;96409.75;4938293;28;103213;-74
2021/01/22 06:28:50;;;;;;;0.63;0.40;;;;;;;9.30;72.63;96424.41;4937226;28;103235;-74
2021/01/22 06:31:17;;;;;;;2.00;0.53;;;;;;;9.30;72.62;96420.97;4935862;28;105026;-74
2021/01/22 06:33:46;;;;;;;0.80;0.47;;;;;;;9.31;72.63;96425.25;4947574;28;109890;-74
2021/01/22 06:36:14;;;;;;;1.70;0.70;;;;;;;9.33;72.41;96410.09;4941797;28;103014;-76
2021/01/22 06:38:43;;;;;;;2.20;0.73;;;;;;;9.32;72.73;96418.97;4929308;28;103523;-72
2021/01/22 06:41:11;;;;;;;1.90;0.63;;;;;;;9.37;72.63;96439.59;4931806;28;105510;-72
2021/01/22 06:43:39;;;;;;;1.33;0.53;;;;;;;9.36;72.56;96430.88;4940688;28;103976;-73
2021/01/22 06:46:09;;;;;;;2.27;0.70;;;;;;;9.33;72.42;96433.81;4952224;28;104784;-73
2021/01/22 06:48:53;;;;;;;3.13;0.80;;;;;;;9.38;72.28;96428.06;4941740;28;103245;-72
2021/01/22 06:51:21;;;;;;;1.73;1.00;;;;;;;9.33;72.60;96432.00;4940703;28;106790;-72
2021/01/22 06:54:08;;;;;;;1.03;0.60;;;;;;;9.35;72.59;96434.47;4943925;28;104874;-73
2021/01/22 06:56:37;;;;;;;1.10;0.70;;;;;;;9.36;72.49;96432.66;4944537;28;111249;-72
2021/01/22 06:59:39;;;;;;;1.43;0.50;;;;;;;9.37;72.09;96426.44;4944490;28;103350;-72
2021/01/22 07:02:38;;;;;;;3.13;0.80;;;;;;;9.31;72.22;96425.25;4938554;28;105154;-72
2021/01/22 07:05:43;;;;;;;1.37;0.93;;;;;;;9.31;72.16;96433.16;4942932;28;105829;-72
2021/01/22 07:08:14;;;;;;;2.33;1.50;;;;;;;9.29;71.88;96435.13;4941179;28;104889;-72
2021/01/22 07:11:03;;;;;;;1.93;0.90;;;;;;;9.30;72.14;96421.78;4937140;28;103078;-72
2021/01/22 07:13:39;;;;;;;2.77;1.10;;;;;;;9.28;72.40;96425.56;4924595;28;104527;-73
2021/01/22 07:16:21;;;;;;;3.97;1.33;;;;;;;9.26;72.33;96419.63;4945583;28;103632;-72
2021/01/22 07:18:52;;;;;;;1.17;0.90;;;;;;;9.26;72.02;96424.91;4934976;28;103301;-72
2021/01/22 07:21:28;;;;;;;1.20;1.10;;;;;;;9.33;72.21;96431.19;4943143;28;103014;-72
2021/01/22 07:23:57;;;;;;;2.77;1.40;;;;;;;9.34;72.18;96422.31;4943537;28;104955;-72
2021/01/22 07:26:29;;;;;;;1.77;1.67;;;;;;;9.39;71.60;96427.91;4944271;28;109255;-72
2021/01/22 07:29:19;;;;;;;2.00;0.83;;;;;;;9.39;71.88;96422.66;4948089;28;107047;-71
2021/01/22 07:31:57;;;;;;;5.13;2.03;;;;;;;9.40;71.46;96421.69;4945124;28;103143;-72
2021/01/22 07:34:51;;;;;;;1.77;1.30;;;;;;;9.51;70.90;96424.03;4948113;28;104603;-72
2021/01/22 07:37:20;;;;;;;2.90;0.80;;;;;;;9.41;71.15;96425.94;4956471;28;103779;-72
2021/01/22 07:39:48;;;;;;;2.60;0.70;;;;;;;9.49;71.22;96418.06;4941232;28;102745;-72
2021/01/22 07:42:17;;;;;;;1.87;0.90;;;;;;;9.46;71.19;96421.03;4937607;28;102927;-72
2021/01/22 07:44:47;;;;;;;5.17;2.33;;;;;;;9.59;70.81;96415.31;4938235;28;103722;-71
2021/01/22 07:47:28;;;;;;;5.07;3.40;;;;;;;9.69;70.24;96431.81;4939294;28;104574;-72
2021/01/22 07:49:57;;;;;;;2.90;1.20;;;;;;;9.64;70.48;96423.56;4941327;28;103044;-71
2021/01/22 07:52:25;;;;;;;6.57;3.67;;;;;;;9.75;70.03;96423.28;4929336;28;103007;-71
2021/01/22 07:54:54;;;;;;;7.50;4.13;;;;;;;9.84;70.06;96423.16;4925751;28;103416;-72
2021/01/22 07:57:23;;;;;;;6.70;3.40;;;;;;;10.01;69.21;96425.81;4942538;28;103265;-73
2021/01/22 07:59:51;;;;;;;2.80;1.13;;;;;;;10.05;68.72;96433.22;4956309;28;103016;-72
2021/01/22 08:02:20;;;;;;;3.10;1.77;;;;;;;10.20;68.16;96428.19;4937715;28;103090;-73
2021/01/22 08:04:56;;;;;;;2.33;0.83;;;;;;;10.27;67.45;96445.03;4922823;28;103977;-72
2021/01/22 08:07:34;;;;;;;3.27;1.47;;;;;;;10.51;67.19;96437.13;4922745;28;103462;-72
2021/01/22 08:10:01;;;;;;;2.43;1.13;;;;;;;10.44;67.39;96444.88;4931522;28;103337;-73
2021/01/22 08:12:30;;;;;;;3.77;1.20;;;;;;;10.52;66.81;96430.88;4935600;28;103757;-73
2021/01/22 08:14:58;;;;;;;2.33;1.27;;;;;;;10.68;66.53;96441.41;4934167;28;103785;-73
2021/01/22 08:17:26;;;;;;;2.60;1.70;;;;;;;10.90;65.89;96435.44;4942624;28;103989;-73
2021/01/22 08:19:53;;;;;;;2.77;1.87;;;;;;;11.01;65.74;96431.63;4934853;28;103024;-73
2021/01/22 08:22:21;;;;;;;4.07;1.90;;;;;;;11.14;65.08;96447.81;4955186;28;102791;-72
2021/01/22 08:24:50;;;;;;;2.97;1.90;;;;;;;11.14;65.18;96436.41;4952352;28;104663;-73
2021/01/22 08:27:20;;;;;;;3.03;1.20;;;;;;;11.26;64.71;96448.25;4924394;28;103825;-74
2021/01/22 08:29:50;;;;;;;1.90;1.20;;;;;;;11.58;63.60;96441.06;4926160;28;102530;-73
2021/01/22 08:32:18;;;;;;;1.80;0.80;;;;;;;11.60;64.06;96440.88;4931712;28;103021;-73
2021/01/22 08:34:47;;;;;;;2.13;0.80;;;;;;;11.63;63.71;96428.16;4923690;28;104529;-73
2021/01/22 08:37:15;;;;;;;2.10;0.80;;;;;;;11.36;64.63;96438.34;4934436;28;104243;-77
2021/01/22 08:39:54;;;;;;;2.33;0.70;;;;;;;11.29;64.53;96440.00;4924721;28;103012;-72
2021/01/22 08:42:23;;;;;;;1.40;0.60;;;;;;;11.60;64.08;96446.19;4937045;28;102697;-72
2021/01/22 08:44:55;;;;;;;1.50;0.60;;;;;;;11.55;63.70;96440.59;4947674;28;103959;-74
2021/01/22 08:47:22;;;;;;;1.63;0.80;;;;;;;11.81;63.40;96430.59;4943559;28;103750;-73
2021/01/22 08:49:54;;;;;;;2.83;0.90;;;;;;;11.96;62.52;96443.88;4940831;28;102872;-73
2021/01/22 08:52:22;;;;;;;3.00;0.80;;;;;;;12.07;62.29;96441.69;4937189;28;104836;-74
2021/01/22 08:54:53;;;;;;;2.27;0.90;;;;;;;12.19;61.54;96434.16;4934709;28;103893;-76
2021/01/22 08:57:21;;;;;;;1.87;1.00;;;;;;;12.45;61.66;96431.19;4954554;28;105425;-74
2021/01/22 08:59:52;;;;;;;2.53;0.90;;;;;;;12.61;60.76;96423.94;4938178;28;102884;-73
2021/01/22 09:02:39;;;;;;;2.80;1.00;;;;;;;12.44;60.83;96434.81;4939831;28;103313;-74
2021/01/22 09:05:12;;;;;;;1.57;0.77;;;;;;;12.55;60.87;96423.81;4927746;28;104015;-75
2021/01/22 09:07:40;;;;;;;1.00;0.70;;;;;;;12.37;60.73;96423.31;4922016;28;106712;-75
2021/01/22 09:10:27;;;;;;;3.37;0.90;;;;;;;12.31;61.04;96431.94;4934550;28;103586;-74
2021/01/22 09:12:55;;;;;;;1.80;0.87;;;;;;;12.07;61.22;96430.28;4921131;28;102843;-75
2021/01/22 09:15:23;;;;;;;1.80;0.53;;;;;;;12.11;61.47;96432.41;4932917;28;103854;-74
2021/01/22 09:17:55;;;;;;;1.30;0.77;;;;;;;11.82;62.27;96436.69;4937289;28;104867;-74
2021/01/22 09:20:25;;;;;;;3.13;0.97;;;;;;;11.84;62.21;96437.34;4933792;28;103111;-74
2021/01/22 09:22:53;;;;;;;2.73;0.80;;;;;;;11.68;62.52;96440.84;4931425;28;103191;-82
2021/01/22 09:25:23;;;;;;;1.67;0.70;;;;;;;11.70;62.57;96449.50;4935077;28;103714;-76
2021/01/22 09:27:51;;;;;;;3.07;0.87;;;;;;;11.73;62.74;96449.16;4933802;28;104959;-84
2021/01/22 09:30:20;;;;;;;1.37;0.70;;;;;;;11.83;62.55;96448.94;4931122;28;103179;-70
2021/01/22 09:32:51;;;;;;;3.23;0.93;;;;;;;11.94;62.36;96453.84;4933719;28;103192;-69
2021/01/22 09:35:20;;;;;;;3.17;0.80;;;;;;;12.08;61.78;96453.94;4937240;28;103464;-75
2021/01/22 09:37:49;;;;;;;2.63;0.90;;;;;;;12.15;61.84;96454.88;4927213;28;104080;-72
2021/01/22 09:40:18;;;;;;;1.53;0.90;;;;;;;12.21;62.10;96459.47;4922483;28;103795;-72
2021/01/22 09:42:46;;;;;;;1.37;0.80;;;;;;;12.19;61.16;96461.47;4927481;28;105370;-72
2021/01/22 09:45:16;;;;;;;1.80;0.93;;;;;;;12.09;61.48;96463.53;4922613;28;105529;-71
2021/01/22 09:47:43;;;;;;;1.47;0.97;;;;;;;12.06;62.02;96461.22;4948663;28;104888;-72
2021/01/22 09:50:15;;;;;;;5.37;1.20;;;;;;;12.08;62.37;96464.50;4934173;28;103263;-72
2021/01/22 09:52:43;;;;;;;3.53;0.70;;;;;;;12.06;62.38;96458.56;4922341;28;102957;-72
2021/01/22 09:55:12;;;;;;;2.13;1.00;;;;;;;12.07;61.77;96460.22;4942792;28;105188;-72
2021/01/22 09:57:40;;;;;;;1.93;0.60;;;;;;;11.98;61.95;96461.28;4940279;28;105512;-73
2021/01/22 10:00:09;;;;;;;2.17;0.93;;;;;;;12.09;62.09;96454.75;4941464;28;102954;-73
2021/01/22 10:02:37;;;;;;;2.83;0.80;;;;;;;12.14;62.05;96450.59;4937342;28;103012;-72
2021/01/22 10:05:06;;;;;;;3.53;1.00;;;;;;;12.20;61.56;96459.66;4939197;28;106275;-73
2021/01/22 10:07:36;;;;;;;4.93;1.07;;;;;;;12.41;60.71;96451.06;4922722;28;104238;-73
2021/01/22 10:10:05;;;;;;;2.53;1.10;;;;;;;12.31;61.34;96442.53;4938399;28;103000;-72
2021/01/22 10:12:33;;;;;;;3.43;1.07;;;;;;;12.39;60.46;96445.97;4940861;28;102967;-72
2021/01/22 10:15:00;;;;;;;3.60;1.00;;;;;;;12.51;60.71;96433.97;4940939;28;103287;-72
2021/01/22 10:17:29;;;;;;;1.63;0.70;;;;;;;12.53;60.31;96424.00;4931997;28;103335;-72
2021/01/22 10:19:57;;;;;;;4.67;1.00;;;;;;;12.48;60.46;96428.19;4923503;28;103302;-74
2021/01/22 10:22:24;;;;;;;2.17;1.17;;;;;;;12.49;60.48;96424.56;4922309;28;104440;-76
2021/01/22 10:24:52;;;;;;;2.93;0.70;;;;;;;12.48;60.39;96417.59;4925303;28;103878;-74
2021/01/22 10:27:19;;;;;;;3.67;0.93;;;;;;;12.51;60.62;96422.53;4941581;28;104873;-77
2021/01/22 10:29:47;;;;;;;4.30;0.90;;;;;;;12.51;60.05;96415.44;4938463;28;103074;-76
2021/01/22 10:32:14;;;;;;;2.33;0.80;;;;;;;12.58;59.72;96418.16;4929077;28;103120;-77
2021/01/22 10:34:42;;;;;;;1.97;0.80;;;;;;;12.90;59.97;96407.31;4931299;28;104519;-77
2021/01/22 10:37:10;;;;;;;4.97;0.90;;;;;;;13.00;59.47;96418.47;4929148;28;109718;-77
2021/01/22 10:39:37;;;;;;;4.87;1.10;;;;;;;13.00;59.04;96407.03;4939949;28;102556;-76
2021/01/22 10:42:05;;;;;;;2.33;0.97;;;;;;;13.00;58.82;96407.03;4937113;28;103529;-77
2021/01/22 10:44:33;;;;;;;3.90;0.90;;;;;;;13.09;58.58;96419.25;4934338;28;103763;-76
2021/01/22 10:47:02;;;;;;;1.43;0.90;;;;;;;13.17;58.94;96412.03;4934191;28;104034;-76
2021/01/22 10:49:30;;;;;;;2.43;1.17;;;;;;;13.50;57.57;96417.78;4938461;28;103219;-81
2021/01/22 10:51:57;;;;;;;2.53;0.80;;;;;;;13.74;57.51;96419.34;4934952;28;103197;-81
2021/01/22 10:54:25;;;;;;;1.03;0.70;;;;;;;14.00;56.80;96411.69;4934682;28;104041;-82
2021/01/22 10:56:53;;;;;;;2.53;1.07;;;;;;;14.12;56.15;96415.50;4933018;28;103919;-81
2021/01/22 10:59:21;;;;;;;3.07;0.87;;;;;;;14.25;55.67;96407.69;4932886;28;103242;-80
2021/01/22 11:01:48;;;;;;;3.10;1.00;;;;;;;13.89;56.51;96409.53;4934064;28;103427;-81
2021/01/22 11:04:16;;;;;;;2.50;0.90;;;;;;;13.79;56.96;96419.59;4934739;28;103336;-81
2021/01/22 11:06:43;;;;;;;1.27;0.70;;;;;;;13.95;56.40;96414.91;4931018;28;104219;-81
2021/01/22 11:09:10;;;;;;;3.37;0.83;;;;;;;14.15;56.32;96399.19;4935490;28;103210;-80
2021/01/22 11:11:40;;;;;;;6.10;1.37;;;;;;;14.18;56.07;96403.31;4926818;28;103013;-82
2021/01/22 11:14:09;;;;;;;2.60;0.90;;;;;;;14.24;56.14;96400.72;4921881;28;105014;-80
2021/01/22 11:16:41;;;;;;;7.03;0.90;;;;;;;14.39;55.17;96400.72;4933691;28;103408;-81
2021/01/22 11:19:10;;;;;;;4.20;0.80;;;;;;;14.32;54.53;96389.19;4903972;28;104400;-80
2021/01/22 11:21:39;;;;;;;2.37;0.90;;;;;;;14.21;55.36;96385.16;4936722;28;103448;-83
2021/01/22 11:24:10;;;;;;;1.80;0.80;;;;;;;14.07;55.52;96391.34;4932379;28;106774;-83
2021/01/22 11:26:43;;;;;;;1.30;0.60;;;;;;;13.87;55.71;96385.00;4930500;28;103927;-82
2021/01/22 11:29:11;;;;;;;4.10;0.77;;;;;;;13.74;55.78;96376.88;4935351;28;103097;-80
2021/01/22 11:31:40;;;;;;;1.50;0.80;;;;;;;13.58;55.83;96385.06;4935643;28;103269;-82
2021/01/22 11:34:08;;;;;;;1.23;0.67;;;;;;;13.64;56.09;96381.66;4939000;28;104640;-79
2021/01/22 11:36:35;;;;;;;0.60;0.60;;;;;;;13.67;56.71;96368.03;4936260;28;104113;-74
2021/01/22 11:39:03;;;;;;;2.33;0.90;;;;;;;13.90;56.22;96371.34;4932113;28;103153;-76
2021/01/22 11:41:30;;;;;;;3.37;0.60;;;;;;;13.94;56.05;96377.94;4933016;28;103676;-74